Time;durP1;ratioP1;P1;durP2;ratioP2;P2;SDS_P1;SDS_P2;PMS_P1;PMS_P2;Temp;Humidity;BMP_temperature;BMP_pressure;BME280_temperature;BME280_humidity;BME280_pressure;Samples;Min_cycle;Max_cycle;Signal;HPM_P1;HPM_P2
2021/12/29 00:01:37;;;;;;;1.70;1.38;;;5.30;99.90;;;;;;5029282;28;20288;-73
2021/12/29 00:04:02;;;;;;;3.55;1.60;;;5.40;99.90;;;;;;5031588;28;20189;-73
2021/12/29 00:06:28;;;;;;;1.53;1.20;;;5.40;99.90;;;;;;5035941;28;20184;-73
2021/12/29 00:08:55;;;;;;;2.70;1.45;;;5.40;99.90;;;;;;5034060;28;20193;-73
2021/12/29 00:11:22;;;;;;;1.55;1.50;;;5.50;99.90;;;;;;5032329;28;20196;-73
2021/12/29 00:13:47;;;;;;;1.23;0.80;;;5.50;99.90;;;;;;5032428;28;20184;-73
2021/12/29 00:16:13;;;;;;;4.65;2.40;;;5.60;99.90;;;;;;5032943;28;20266;-73
2021/12/29 00:18:39;;;;;;;3.55;1.45;;;5.60;99.90;;;;;;5034801;28;20194;-73
2021/12/29 00:21:06;;;;;;;1.10;1.10;;;5.70;99.90;;;;;;5031019;28;20211;-73
2021/12/29 00:23:32;;;;;;;1.92;1.40;;;5.70;99.90;;;;;;5029964;28;20680;-73
2021/12/29 00:25:58;;;;;;;5.65;2.13;;;5.80;99.90;;;;;;5034225;28;20289;-73
2021/12/29 00:28:23;;;;;;;3.30;1.63;;;5.80;99.90;;;;;;5036757;28;20184;-73
2021/12/29 00:30:49;;;;;;;3.50;1.38;;;5.80;99.90;;;;;;5033122;28;20205;-73
2021/12/29 00:33:15;;;;;;;3.17;1.38;;;5.80;99.90;;;;;;5032419;28;20547;-73
2021/12/29 00:35:42;;;;;;;1.05;1.05;;;5.80;99.90;;;;;;5037515;28;20548;-73
2021/12/29 00:38:10;;;;;;;2.20;1.20;;;5.90;99.90;;;;;;5031628;28;20184;-73
2021/12/29 00:40:37;;;;;;;3.85;1.35;;;6.00;99.90;;;;;;5034576;28;20283;-72
2021/12/29 00:43:05;;;;;;;2.15;1.80;;;6.00;99.90;;;;;;5030574;28;20709;-73
2021/12/29 00:45:33;;;;;;;2.75;1.65;;;6.00;99.90;;;;;;5032638;28;20234;-73
2021/12/29 00:47:59;;;;;;;2.58;1.38;;;6.00;99.90;;;;;;5033157;28;20189;-73
2021/12/29 00:50:25;;;;;;;1.60;1.48;;;6.10;99.90;;;;;;5031046;28;20216;-73
2021/12/29 00:52:50;;;;;;;8.73;1.20;;;6.10;99.90;;;;;;5032060;28;20239;-73
2021/12/29 00:55:17;;;;;;;13.70;2.20;;;6.20;99.90;;;;;;5037007;28;20740;-73
2021/12/29 00:57:44;;;;;;;1.83;1.35;;;6.20;99.90;;;;;;5033406;28;20268;-73
2021/12/29 01:00:14;;;;;;;2.83;1.85;;;6.30;99.90;;;;;;5032881;28;20292;-73
2021/12/29 01:02:40;;;;;;;9.75;2.17;;;6.20;99.90;;;;;;5035415;28;20180;-73
2021/12/29 01:05:08;;;;;;;6.43;2.10;;;6.20;99.90;;;;;;5036404;28;20188;-73
2021/12/29 01:07:34;;;;;;;4.07;1.67;;;6.30;99.90;;;;;;5033420;28;20624;-73
2021/12/29 01:10:00;;;;;;;5.90;1.40;;;6.30;99.90;;;;;;5027306;28;20208;-73
2021/12/29 01:12:27;;;;;;;7.90;1.70;;;6.40;99.90;;;;;;5028243;28;20755;-73
2021/12/29 01:14:57;;;;;;;4.80;1.52;;;6.40;99.90;;;;;;5032008;28;20205;-73
2021/12/29 01:17:24;;;;;;;3.75;1.90;;;6.30;99.90;;;;;;5028477;28;20172;-73
2021/12/29 01:19:53;;;;;;;2.55;1.75;;;6.40;99.90;;;;;;5034928;28;20200;-72
2021/12/29 01:22:20;;;;;;;2.40;1.50;;;6.40;99.90;;;;;;5027341;28;20541;-73
2021/12/29 01:24:46;;;;;;;4.10;1.60;;;6.40;99.90;;;;;;5030305;28;20177;-72
2021/12/29 01:27:13;;;;;;;4.75;2.00;;;6.50;99.90;;;;;;5030718;28;20180;-72
2021/12/29 01:29:39;;;;;;;1.85;1.60;;;6.40;99.90;;;;;;5035734;28;20256;-72
2021/12/29 01:32:05;;;;;;;3.00;1.50;;;6.50;99.90;;;;;;5032720;28;20198;-72
2021/12/29 01:34:31;;;;;;;1.42;1.30;;;6.40;99.90;;;;;;5032265;28;20181;-72
2021/12/29 01:36:57;;;;;;;4.28;1.70;;;6.50;99.90;;;;;;5039288;28;20189;-72
2021/12/29 01:39:23;;;;;;;2.05;0.93;;;6.50;99.90;;;;;;5031583;28;20187;-72
2021/12/29 01:41:51;;;;;;;2.70;1.92;;;6.60;99.90;;;;;;5033078;28;20217;-72
2021/12/29 01:44:21;;;;;;;1.77;1.65;;;6.60;99.90;;;;;;5034378;28;20670;-73
2021/12/29 01:46:47;;;;;;;6.47;2.00;;;6.60;99.90;;;;;;5032492;28;20176;-73
2021/12/29 01:49:13;;;;;;;4.60;1.88;;;6.50;99.90;;;;;;5032859;28;20192;-72
2021/12/29 01:51:49;;;;;;;2.40;1.75;;;6.60;99.90;;;;;;5037769;28;20367;-73
2021/12/29 01:54:23;;;;;;;1.50;1.38;;;6.60;99.90;;;;;;5027857;28;20222;-73
2021/12/29 01:56:51;;;;;;;3.70;1.80;;;6.50;99.90;;;;;;5032435;28;20279;-73
2021/12/29 01:59:17;;;;;;;2.38;1.63;;;6.60;99.90;;;;;;5032158;28;20755;-73
2021/12/29 02:01:43;;;;;;;2.33;1.15;;;6.60;99.90;;;;;;5031358;28;20210;-73
2021/12/29 02:04:10;;;;;;;3.17;1.30;;;6.60;99.90;;;;;;5033801;28;20176;-72
2021/12/29 02:06:36;;;;;;;2.28;1.20;;;6.60;99.90;;;;;;5033816;28;20184;-73
2021/12/29 02:09:04;;;;;;;0.73;0.73;;;6.60;99.90;;;;;;5033217;28;20184;-73
2021/12/29 02:11:30;;;;;;;4.25;1.42;;;6.60;99.90;;;;;;5026291;28;20687;-73
2021/12/29 02:14:06;;;;;;;1.83;1.20;;;6.60;99.90;;;;;;5028465;28;20286;-72
2021/12/29 02:16:33;;;;;;;1.30;1.20;;;6.60;99.90;;;;;;5031374;28;20647;-72
2021/12/29 02:19:13;;;;;;;2.33;1.23;;;6.60;99.90;;;;;;5029673;28;20550;-71
2021/12/29 02:21:42;;;;;;;1.27;0.80;;;6.60;99.90;;;;;;5030357;28;20214;-72
2021/12/29 02:26:38;;;;;;;1.30;1.00;;;6.60;99.90;;;;;;5028095;28;20226;-72
2021/12/29 02:29:08;;;;;;;1.30;1.20;;;6.60;99.90;;;;;;5032015;28;20180;-73
2021/12/29 02:31:36;;;;;;;4.82;2.65;;;6.70;99.90;;;;;;5031526;28;20212;-73
2021/12/29 02:34:02;;;;;;;2.08;1.13;;;6.60;99.90;;;;;;5030979;28;20851;-73
2021/12/29 02:36:28;;;;;;;2.10;1.02;;;6.60;99.90;;;;;;5021457;28;20573;-72
2021/12/29 02:38:55;;;;;;;2.50;1.17;;;6.70;99.90;;;;;;5033214;28;20180;-73
2021/12/29 02:41:24;;;;;;;2.08;0.90;;;6.60;99.90;;;;;;5030514;28;20203;-73
2021/12/29 02:43:58;;;;;;;2.65;1.20;;;6.60;99.90;;;;;;5030130;28;20217;-73
2021/12/29 02:46:24;;;;;;;1.92;0.75;;;6.70;99.90;;;;;;5034617;28;20184;-74
2021/12/29 02:49:02;;;;;;;0.80;0.80;;;6.70;99.90;;;;;;5022930;28;20211;-73
2021/12/29 02:51:32;;;;;;;1.10;0.70;;;6.70;99.90;;;;;;5051619;28;20212;-72
2021/12/29 02:53:58;;;;;;;3.72;0.90;;;6.70;99.90;;;;;;5020045;28;20651;-72
2021/12/29 02:56:26;;;;;;;0.88;0.80;;;6.80;99.90;;;;;;5026066;28;20208;-73
2021/12/29 02:58:55;;;;;;;1.00;1.00;;;6.80;99.90;;;;;;5023651;28;20209;-73
2021/12/29 03:01:22;;;;;;;1.00;0.80;;;6.80;99.90;;;;;;5028864;28;20212;-73
2021/12/29 03:03:48;;;;;;;1.27;0.82;;;6.80;99.90;;;;;;5025362;28;20187;-73
2021/12/29 03:06:14;;;;;;;2.38;1.05;;;6.80;99.90;;;;;;5034267;28;20196;-73
2021/12/29 03:08:40;;;;;;;1.95;1.52;;;6.80;99.90;;;;;;5021720;28;20176;-73
2021/12/29 03:11:07;;;;;;;1.33;1.05;;;6.80;99.90;;;;;;5022908;28;20195;-72
2021/12/29 03:13:35;;;;;;;1.85;0.85;;;6.80;99.90;;;;;;5031240;28;20185;-73
2021/12/29 03:16:02;;;;;;;1.15;0.60;;;6.80;99.90;;;;;;5020579;28;20684;-72
2021/12/29 03:18:29;;;;;;;1.05;1.00;;;6.70;99.90;;;;;;5032743;28;20176;-74
2021/12/29 03:20:54;;;;;;;3.28;1.00;;;6.80;99.90;;;;;;5031278;28;20253;-73
2021/12/29 03:23:21;;;;;;;4.30;0.90;;;6.80;99.90;;;;;;5031408;28;20188;-71
2021/12/29 03:25:48;;;;;;;1.38;0.90;;;6.80;99.90;;;;;;5029646;28;20191;-71
2021/12/29 03:28:15;;;;;;;2.33;1.02;;;6.80;99.90;;;;;;5029482;28;20539;-72
2021/12/29 03:30:41;;;;;;;0.85;0.82;;;6.80;99.90;;;;;;5029611;28;20308;-72
2021/12/29 03:33:09;;;;;;;1.17;0.95;;;6.80;99.90;;;;;;5031210;28;20264;-73
2021/12/29 03:35:44;;;;;;;2.20;0.75;;;6.80;99.90;;;;;;5028572;28;20204;-72
2021/12/29 03:38:16;;;;;;;4.38;1.35;;;6.90;99.90;;;;;;5030098;28;20234;-72
2021/12/29 03:40:42;;;;;;;0.80;0.80;;;6.90;99.90;;;;;;5032940;28;20201;-72
2021/12/29 03:43:10;;;;;;;2.88;1.17;;;6.90;99.90;;;;;;5036147;28;20180;-72
2021/12/29 03:45:37;;;;;;;2.75;0.90;;;6.90;99.90;;;;;;5034802;28;20180;-72
2021/12/29 03:48:08;;;;;;;2.80;1.00;;;7.00;99.90;;;;;;5031190;28;20180;-73
2021/12/29 03:50:35;;;;;;;2.15;1.10;;;6.90;99.90;;;;;;5038485;28;20205;-71
2021/12/29 03:53:01;;;;;;;4.13;1.17;;;7.00;99.90;;;;;;5033198;28;20659;-73
2021/12/29 03:55:26;;;;;;;2.55;1.30;;;7.00;99.90;;;;;;5033984;28;20565;-72
2021/12/29 03:57:52;;;;;;;2.25;1.13;;;7.10;99.90;;;;;;5029997;28;20177;-72
2021/12/29 04:00:19;;;;;;;2.72;1.23;;;7.00;99.90;;;;;;5026549;28;20699;-73
2021/12/29 04:02:45;;;;;;;1.60;0.68;;;7.10;99.90;;;;;;5038461;28;20555;-72
2021/12/29 04:05:13;;;;;;;0.75;0.60;;;7.10;99.90;;;;;;5037206;28;20677;-73
2021/12/29 04:07:40;;;;;;;3.33;0.95;;;7.10;99.90;;;;;;5035002;28;20208;-73
2021/12/29 04:10:07;;;;;;;0.93;0.52;;;7.20;99.90;;;;;;5030161;28;20208;-72
2021/12/29 04:12:33;;;;;;;1.38;1.10;;;7.20;99.90;;;;;;5037430;28;20635;-72
2021/12/29 04:14:59;;;;;;;5.20;1.27;;;7.10;99.90;;;;;;5034650;28;20274;-72
2021/12/29 04:17:30;;;;;;;1.05;0.93;;;7.20;99.90;;;;;;5030488;28;20176;-73
2021/12/29 04:22:40;;;;;;;0.55;0.55;;;7.10;99.90;;;;;;5036265;28;20231;-72
2021/12/29 04:25:07;;;;;;;1.83;1.33;;;7.20;99.90;;;;;;5033622;28;20659;-73
2021/12/29 04:27:33;;;;;;;0.68;0.68;;;7.20;99.90;;;;;;5026818;28;20208;-71
2021/12/29 04:29:58;;;;;;;0.75;0.75;;;7.20;99.90;;;;;;5033954;28;20235;-73
2021/12/29 04:32:24;;;;;;;0.95;0.60;;;7.10;99.90;;;;;;5034282;28;20185;-73
2021/12/29 04:34:49;;;;;;;1.05;0.98;;;7.10;99.90;;;;;;5035228;28;20221;-72
2021/12/29 04:37:15;;;;;;;1.88;0.57;;;7.10;99.90;;;;;;5031379;28;20181;-71
2021/12/29 04:39:41;;;;;;;0.93;0.80;;;7.10;99.90;;;;;;5031932;28;20177;-72
2021/12/29 04:42:07;;;;;;;0.60;0.60;;;7.20;99.90;;;;;;5033235;28;20580;-72
2021/12/29 04:44:32;;;;;;;0.70;0.70;;;7.20;99.90;;;;;;5029844;28;20643;-73
2021/12/29 04:46:58;;;;;;;1.63;0.60;;;7.20;99.90;;;;;;5035940;28;20207;-72
2021/12/29 04:49:28;;;;;;;2.42;0.82;;;7.20;99.90;;;;;;5034543;28;20180;-72
2021/12/29 04:52:03;;;;;;;0.65;0.65;;;7.20;99.90;;;;;;5036123;28;20207;-72
2021/12/29 04:54:30;;;;;;;4.00;0.98;;;7.20;99.90;;;;;;5030772;28;20184;-73
2021/12/29 04:56:57;;;;;;;1.95;0.60;;;7.20;99.90;;;;;;5036215;28;20206;-72
2021/12/29 04:59:23;;;;;;;0.70;0.70;;;7.30;99.90;;;;;;5021041;28;20193;-73
2021/12/29 05:01:49;;;;;;;2.05;1.25;;;7.20;99.90;;;;;;5033724;28;20569;-72
2021/12/29 05:04:21;;;;;;;0.65;0.65;;;7.30;99.90;;;;;;5018673;28;20185;-73
2021/12/29 05:09:31;;;;;;;2.80;0.63;;;7.30;99.90;;;;;;5026230;28;20683;-72
2021/12/29 05:12:00;;;;;;;2.92;1.52;;;7.30;99.90;;;;;;5030147;28;20192;-71
2021/12/29 05:14:26;;;;;;;1.70;1.02;;;7.40;99.90;;;;;;5024994;28;20176;-72
2021/12/29 05:16:51;;;;;;;2.88;1.52;;;7.40;99.90;;;;;;5028951;28;20209;-73
2021/12/29 05:19:17;;;;;;;1.02;1.02;;;7.40;99.90;;;;;;5027610;28;20263;-72
2021/12/29 05:21:43;;;;;;;0.75;0.75;;;7.50;99.90;;;;;;5028649;28;20197;-72
2021/12/29 05:24:08;;;;;;;1.00;1.00;;;7.40;99.90;;;;;;5027716;28;20219;-72
2021/12/29 05:26:35;;;;;;;1.30;1.08;;;7.40;99.90;;;;;;5024691;28;20255;-71
2021/12/29 05:29:01;;;;;;;1.02;1.02;;;7.40;99.90;;;;;;5026772;28;20192;-72
2021/12/29 05:31:27;;;;;;;3.50;1.08;;;7.40;99.90;;;;;;5026558;28;20284;-72
2021/12/29 05:33:54;;;;;;;2.03;0.80;;;7.40;99.90;;;;;;5027562;28;20315;-72
2021/12/29 05:36:20;;;;;;;1.48;1.13;;;7.40;99.90;;;;;;5031928;28;20279;-74
2021/12/29 05:38:45;;;;;;;1.75;1.25;;;7.30;99.90;;;;;;5023912;28;20172;-74
2021/12/29 05:41:11;;;;;;;2.70;1.08;;;7.40;99.90;;;;;;5045648;28;20226;-74
2021/12/29 05:43:37;;;;;;;1.50;1.40;;;7.40;99.90;;;;;;5028246;28;20220;-71
2021/12/29 05:46:03;;;;;;;1.02;0.88;;;7.40;99.90;;;;;;5024529;28;20192;-74
2021/12/29 05:48:29;;;;;;;0.93;0.75;;;7.40;99.90;;;;;;5032267;28;20189;-74
2021/12/29 05:50:55;;;;;;;0.45;0.45;;;7.30;99.90;;;;;;5030943;28;20657;-74
2021/12/29 05:53:21;;;;;;;0.80;0.80;;;7.40;99.90;;;;;;5023221;28;20177;-74
2021/12/29 05:55:47;;;;;;;2.55;1.25;;;7.40;99.90;;;;;;5025495;28;20677;-73
2021/12/29 05:58:13;;;;;;;1.10;1.00;;;7.40;99.90;;;;;;5017142;28;20213;-74
2021/12/29 06:00:40;;;;;;;1.67;1.02;;;7.40;99.90;;;;;;5021655;28;20288;-73
2021/12/29 06:03:06;;;;;;;2.65;1.30;;;7.40;99.90;;;;;;5021272;28;20228;-73
2021/12/29 06:05:32;;;;;;;1.00;1.00;;;7.30;99.90;;;;;;5019532;28;20184;-73
2021/12/29 06:07:58;;;;;;;2.35;0.90;;;7.30;99.90;;;;;;5031162;28;20614;-73
2021/12/29 06:10:24;;;;;;;2.63;1.08;;;7.40;99.90;;;;;;5024018;28;20212;-74
2021/12/29 06:12:49;;;;;;;1.42;1.17;;;7.30;99.90;;;;;;5024167;28;20729;-72
2021/12/29 06:15:15;;;;;;;0.93;0.73;;;7.30;99.90;;;;;;5022685;28;20213;-74
2021/12/29 06:17:41;;;;;;;1.08;0.93;;;7.30;99.90;;;;;;5020389;28;20185;-73
2021/12/29 06:20:09;;;;;;;1.50;1.40;;;7.30;99.90;;;;;;5018099;28;20562;-74
2021/12/29 06:22:35;;;;;;;2.17;0.88;;;7.30;99.90;;;;;;5017287;28;20178;-73
2021/12/29 06:25:01;;;;;;;2.40;1.00;;;7.30;99.90;;;;;;5018254;28;20192;-73
2021/12/29 06:27:27;;;;;;;1.38;1.17;;;7.40;99.90;;;;;;5037680;28;20180;-73
2021/12/29 06:29:53;;;;;;;3.30;1.05;;;7.40;99.90;;;;;;5030837;28;20201;-73
2021/12/29 06:32:19;;;;;;;1.00;1.00;;;7.40;99.90;;;;;;5026842;28;20191;-73
2021/12/29 06:34:45;;;;;;;2.03;1.38;;;7.40;99.90;;;;;;5030451;28;20264;-73
2021/12/29 06:37:12;;;;;;;0.85;0.85;;;7.40;99.90;;;;;;5031442;28;20341;-73
2021/12/29 06:39:43;;;;;;;1.20;1.10;;;7.50;99.90;;;;;;5030674;28;20659;-72
2021/12/29 06:42:09;;;;;;;1.55;0.68;;;7.50;99.90;;;;;;5027523;28;20185;-73
2021/12/29 06:44:37;;;;;;;3.03;1.17;;;7.50;99.90;;;;;;5025719;28;20168;-73
2021/12/29 06:47:03;;;;;;;2.05;0.98;;;7.50;99.90;;;;;;5036463;28;20192;-73
2021/12/29 06:49:30;;;;;;;1.70;0.88;;;7.50;99.90;;;;;;5031065;28;20176;-73
2021/12/29 06:51:55;;;;;;;1.42;0.95;;;7.40;99.90;;;;;;5029749;28;20668;-73
2021/12/29 06:54:21;;;;;;;2.75;1.00;;;7.40;99.90;;;;;;5032756;28;20187;-73
2021/12/29 06:56:48;;;;;;;1.00;1.00;;;7.50;99.90;;;;;;5020812;28;20302;-73
2021/12/29 06:59:14;;;;;;;0.90;0.77;;;7.50;99.90;;;;;;5028054;28;20193;-73
2021/12/29 07:01:40;;;;;;;1.33;0.70;;;7.50;99.90;;;;;;5031136;28;20302;-73
2021/12/29 07:04:06;;;;;;;2.22;0.80;;;7.60;99.90;;;;;;5026525;28;20185;-73
2021/12/29 07:06:32;;;;;;;0.82;0.82;;;7.60;99.90;;;;;;5025681;28;20551;-73
2021/12/29 07:08:57;;;;;;;1.55;0.68;;;7.60;99.90;;;;;;5024268;28;20180;-73
2021/12/29 07:11:23;;;;;;;0.70;0.70;;;7.60;99.90;;;;;;5016968;28;20721;-72
2021/12/29 07:13:49;;;;;;;1.15;0.98;;;7.70;99.90;;;;;;5024358;28;20191;-73
2021/12/29 07:16:15;;;;;;;1.83;0.70;;;7.60;99.90;;;;;;5029593;28;20212;-73
2021/12/29 07:18:40;;;;;;;0.80;0.80;;;7.70;99.90;;;;;;5019111;28;20243;-72
2021/12/29 07:21:06;;;;;;;0.60;0.60;;;7.70;99.90;;;;;;5039227;28;20674;-72
2021/12/29 07:23:32;;;;;;;2.50;0.95;;;7.70;99.90;;;;;;5025813;28;20182;-72
2021/12/29 07:25:57;;;;;;;1.33;1.00;;;7.70;99.90;;;;;;5026304;28;20616;-71
2021/12/29 07:28:23;;;;;;;1.08;1.05;;;7.70;99.90;;;;;;5028584;28;20188;-72
2021/12/29 07:30:49;;;;;;;1.10;1.10;;;7.70;99.90;;;;;;5025459;28;20209;-72
2021/12/29 07:33:15;;;;;;;0.70;0.70;;;7.80;99.90;;;;;;5029958;28;20234;-71
2021/12/29 07:35:40;;;;;;;1.58;0.95;;;7.80;99.90;;;;;;5023697;28;20291;-72
2021/12/29 07:38:06;;;;;;;0.93;0.60;;;7.70;99.90;;;;;;5045533;28;20185;-71
2021/12/29 07:40:34;;;;;;;1.08;1.08;;;7.80;99.90;;;;;;5025537;28;20196;-72
2021/12/29 07:43:01;;;;;;;0.85;0.85;;;7.80;99.90;;;;;;5018723;28;20177;-71
2021/12/29 07:45:27;;;;;;;0.73;0.73;;;7.80;99.90;;;;;;5029343;28;20173;-72
2021/12/29 07:47:53;;;;;;;1.17;0.77;;;7.80;99.90;;;;;;5027860;28;20568;-72
2021/12/29 07:50:20;;;;;;;2.05;1.33;;;7.80;99.90;;;;;;5036747;28;20226;-72
2021/12/29 07:52:48;;;;;;;1.27;0.70;;;7.80;99.90;;;;;;5022971;28;20181;-72
2021/12/29 07:55:23;;;;;;;0.85;0.85;;;7.90;99.90;;;;;;5019945;28;20287;-74
2021/12/29 07:57:49;;;;;;;1.23;0.95;;;8.00;99.90;;;;;;5024589;28;20176;-73
2021/12/29 08:00:16;;;;;;;0.60;0.60;;;8.10;99.90;;;;;;5029977;28;20219;-72
2021/12/29 08:02:44;;;;;;;1.50;1.40;;;8.20;99.90;;;;;;5021476;28;20223;-73
2021/12/29 08:05:10;;;;;;;1.75;1.00;;;8.30;99.90;;;;;;5022444;28;20183;-73
2021/12/29 08:07:36;;;;;;;0.77;0.77;;;8.30;99.90;;;;;;5019227;28;20185;-73
2021/12/29 08:10:03;;;;;;;1.13;1.13;;;8.30;99.90;;;;;;5020043;28;20205;-74
2021/12/29 08:12:29;;;;;;;2.53;1.10;;;8.20;99.90;;;;;;5025242;28;20185;-71
2021/12/29 08:14:54;;;;;;;1.42;0.98;;;8.30;99.90;;;;;;5019928;28;20192;-74
2021/12/29 08:17:20;;;;;;;0.80;0.80;;;8.20;99.90;;;;;;5018354;28;20186;-73
2021/12/29 08:19:46;;;;;;;1.40;0.88;;;8.20;99.90;;;;;;5029801;28;20191;-73
2021/12/29 08:22:11;;;;;;;1.02;0.80;;;8.30;99.90;;;;;;5023362;28;20184;-73
2021/12/29 08:24:37;;;;;;;2.72;0.90;;;8.40;99.90;;;;;;5016013;28;20281;-72
2021/12/29 08:27:04;;;;;;;0.60;0.60;;;8.40;99.90;;;;;;5019365;28;20228;-72
2021/12/29 08:29:30;;;;;;;1.35;0.93;;;8.50;99.90;;;;;;5029606;28;20181;-73
2021/12/29 08:31:57;;;;;;;1.17;1.00;;;8.60;99.90;;;;;;5026553;28;20754;-72
2021/12/29 08:34:24;;;;;;;0.70;0.70;;;8.60;99.90;;;;;;5023182;28;20223;-73
2021/12/29 08:36:50;;;;;;;1.45;1.00;;;8.70;99.90;;;;;;5032013;28;20295;-72
2021/12/29 08:39:18;;;;;;;1.25;1.15;;;8.70;99.90;;;;;;5020722;28;20259;-72
2021/12/29 08:41:47;;;;;;;0.98;0.75;;;8.70;99.90;;;;;;5024728;28;20201;-72
2021/12/29 08:44:13;;;;;;;2.22;1.80;;;8.80;99.90;;;;;;5024030;28;20188;-72
2021/12/29 08:46:39;;;;;;;1.38;0.98;;;8.80;99.90;;;;;;5020657;28;20200;-72
2021/12/29 08:49:05;;;;;;;1.20;0.95;;;8.80;99.90;;;;;;5025763;28;20181;-72
2021/12/29 08:51:31;;;;;;;0.82;0.82;;;8.70;99.90;;;;;;5023448;28;20551;-72
2021/12/29 08:53:57;;;;;;;1.50;1.40;;;8.90;99.90;;;;;;5019127;28;20196;-70
2021/12/29 08:56:24;;;;;;;1.38;0.90;;;9.10;99.90;;;;;;5019072;28;20213;-70
2021/12/29 08:58:51;;;;;;;0.82;0.82;;;9.20;99.90;;;;;;5023037;28;20184;-71
2021/12/29 09:01:18;;;;;;;1.05;0.73;;;9.30;99.90;;;;;;5031887;28;20298;-72
2021/12/29 09:03:44;;;;;;;0.52;0.52;;;9.50;99.90;;;;;;5016230;28;20219;-71
2021/12/29 09:06:11;;;;;;;1.00;0.50;;;9.70;99.90;;;;;;5020937;28;20213;-72
2021/12/29 09:08:37;;;;;;;0.50;0.50;;;10.10;99.90;;;;;;5028740;28;20206;-71
2021/12/29 09:11:03;;;;;;;0.63;0.63;;;10.20;99.90;;;;;;5030453;28;20286;-71
2021/12/29 09:13:29;;;;;;;0.65;0.65;;;10.40;99.90;;;;;;5026663;28;20176;-71
2021/12/29 09:15:57;;;;;;;2.03;0.80;;;10.70;99.90;;;;;;5020283;28;20197;-71
2021/12/29 09:18:28;;;;;;;0.63;0.63;;;10.90;99.90;;;;;;5019014;28;20180;-71
2021/12/29 09:20:55;;;;;;;0.60;0.60;;;10.80;99.90;;;;;;5024624;28;20200;-71
2021/12/29 09:23:21;;;;;;;1.48;1.38;;;10.50;99.90;;;;;;5020555;28;20175;-75
2021/12/29 09:25:48;;;;;;;3.65;0.80;;;10.40;99.90;;;;;;5022062;28;20613;-71
2021/12/29 09:28:16;;;;;;;0.70;0.70;;;10.30;99.90;;;;;;5034018;28;20181;-72
2021/12/29 09:30:46;;;;;;;0.40;0.40;;;10.10;99.90;;;;;;5023722;28;20201;-72
2021/12/29 09:33:13;;;;;;;0.80;0.65;;;10.10;99.90;;;;;;5020238;28;20188;-75
2021/12/29 09:35:38;;;;;;;0.60;0.60;;;10.00;99.90;;;;;;5025621;28;20288;-74
2021/12/29 09:38:06;;;;;;;3.53;0.85;;;10.00;99.90;;;;;;5019295;28;20607;-74
2021/12/29 09:40:33;;;;;;;0.60;0.45;;;10.00;99.90;;;;;;5027087;28;20232;-73
2021/12/29 09:42:59;;;;;;;0.70;0.70;;;10.00;99.90;;;;;;5025825;28;20671;-74
2021/12/29 09:45:26;;;;;;;0.30;0.30;;;10.00;99.90;;;;;;5027719;28;20199;-74
2021/12/29 09:47:53;;;;;;;0.45;0.45;;;10.00;99.90;;;;;;5025947;28;20176;-74
2021/12/29 09:50:20;;;;;;;0.65;0.63;;;9.90;99.90;;;;;;5026775;28;20215;-72
2021/12/29 09:52:46;;;;;;;0.63;0.63;;;9.80;99.90;;;;;;5023511;28;20181;-71
2021/12/29 09:55:18;;;;;;;1.45;0.95;;;9.70;99.90;;;;;;5018175;28;20215;-73
2021/12/29 09:57:46;;;;;;;1.10;1.10;;;9.40;99.90;;;;;;5020100;28;20196;-71
2021/12/29 10:00:26;;;;;;;1.42;1.00;;;9.30;99.90;;;;;;5025571;28;20211;-72
2021/12/29 10:02:53;;;;;;;2.25;1.25;;;9.10;99.90;;;;;;5023378;28;20181;-73
2021/12/29 10:05:20;;;;;;;1.05;0.88;;;9.10;99.90;;;;;;5030247;28;20188;-73
2021/12/29 10:08:06;;;;;;;1.15;0.90;;;9.00;99.90;;;;;;5023935;28;20187;-73
2021/12/29 10:10:34;;;;;;;0.80;0.80;;;8.90;99.90;;;;;;5023524;28;20658;-73
2021/12/29 10:13:00;;;;;;;0.80;0.80;;;8.90;99.90;;;;;;5024956;28;20188;-73
2021/12/29 10:15:32;;;;;;;1.67;1.13;;;9.00;99.90;;;;;;5018320;28;20200;-74
2021/12/29 10:18:04;;;;;;;0.73;0.73;;;8.90;99.90;;;;;;5017550;28;20188;-70
2021/12/29 10:20:30;;;;;;;1.75;0.85;;;9.10;99.90;;;;;;5022062;28;20283;-76
2021/12/29 10:22:57;;;;;;;1.65;1.02;;;9.10;99.90;;;;;;5029140;28;20275;-74
2021/12/29 10:25:24;;;;;;;1.05;0.70;;;9.30;99.90;;;;;;5018864;28;20182;-75
2021/12/29 10:27:51;;;;;;;0.80;0.80;;;9.40;99.90;;;;;;5024641;28;20189;-74
2021/12/29 10:30:26;;;;;;;0.80;0.80;;;9.60;99.90;;;;;;5016019;28;20207;-75
2021/12/29 10:32:55;;;;;;;0.52;0.52;;;9.70;99.90;;;;;;5014789;28;20216;-74
2021/12/29 10:35:24;;;;;;;0.80;0.80;;;10.00;99.90;;;;;;5018626;28;20213;-74
2021/12/29 10:37:51;;;;;;;1.70;1.35;;;10.50;99.90;;;;;;5023250;28;20178;-74
2021/12/29 10:40:28;;;;;;;2.63;0.82;;;10.80;99.90;;;;;;5023397;28;20196;-74
2021/12/29 10:42:57;;;;;;;0.95;0.82;;;10.80;99.90;;;;;;5022848;28;20188;-73
2021/12/29 10:45:37;;;;;;;0.47;0.47;;;10.70;99.90;;;;;;5020347;28;20687;-78
2021/12/29 10:48:24;;;;;;;0.68;0.68;;;10.80;99.90;;;;;;5022944;28;20177;-78
2021/12/29 10:51:08;;;;;;;1.45;0.70;;;10.70;99.90;;;;;;5027938;28;20688;-76
2021/12/29 10:53:37;;;;;;;0.30;0.30;;;10.70;99.90;;;;;;5024092;28;20702;-75
2021/12/29 10:56:04;;;;;;;0.40;0.40;;;10.80;99.90;;;;;;5019395;28;20216;-73
2021/12/29 10:58:34;;;;;;;0.77;0.77;;;10.70;99.90;;;;;;5016129;28;20177;-73
2021/12/29 11:01:08;;;;;;;0.88;0.88;;;10.60;99.90;;;;;;5026337;28;20303;-73
2021/12/29 11:03:42;;;;;;;0.55;0.55;;;10.50;99.90;;;;;;5027312;28;20177;-73
2021/12/29 11:06:13;;;;;;;0.88;0.88;;;10.30;99.90;;;;;;5029627;28;20628;-74
2021/12/29 11:08:51;;;;;;;0.75;0.75;;;10.20;99.90;;;;;;5021102;28;20184;-73
2021/12/29 11:11:20;;;;;;;1.35;1.25;;;10.10;99.90;;;;;;5039711;28;21200;-73
2021/12/29 11:13:46;;;;;;;0.80;0.80;;;10.20;99.90;;;;;;5021056;28;20234;-73
2021/12/29 11:16:12;;;;;;;1.25;1.10;;;10.40;99.90;;;;;;5025935;28;20235;-73
2021/12/29 11:18:50;;;;;;;0.70;0.63;;;10.80;99.90;;;;;;5028902;28;20173;-73
2021/12/29 11:21:24;;;;;;;1.52;1.10;;;11.60;99.90;;;;;;5019795;28;20234;-73
2021/12/29 11:23:50;;;;;;;1.40;1.00;;;12.40;99.90;;;;;;5027108;28;20180;-76
2021/12/29 11:26:26;;;;;;;1.10;0.70;;;12.40;99.90;;;;;;5026768;28;20227;-76
2021/12/29 11:28:52;;;;;;;0.68;0.68;;;12.40;99.90;;;;;;5032186;28;20176;-76
2021/12/29 11:31:18;;;;;;;0.70;0.70;;;12.30;99.90;;;;;;5019207;28;20250;-76
2021/12/29 11:33:44;;;;;;;0.60;0.60;;;11.90;99.90;;;;;;5020031;28;20193;-76
2021/12/29 11:36:19;;;;;;;0.47;0.43;;;11.70;99.90;;;;;;5024558;28;20212;-77
2021/12/29 11:38:46;;;;;;;1.55;0.90;;;11.40;99.90;;;;;;5022868;28;20655;-76
2021/12/29 11:41:17;;;;;;;1.05;0.95;;;11.10;99.90;;;;;;5019277;28;20227;-76
2021/12/29 11:43:44;;;;;;;1.02;0.98;;;10.80;99.90;;;;;;5015807;28;20246;-76
2021/12/29 11:46:10;;;;;;;1.05;0.73;;;10.70;99.90;;;;;;5015662;28;20180;-77
2021/12/29 11:48:35;;;;;;;0.80;0.80;;;10.50;99.90;;;;;;5024754;28;20176;-76
2021/12/29 11:51:03;;;;;;;1.02;0.90;;;10.40;99.90;;;;;;5023391;28;20216;-76
2021/12/29 11:53:58;;;;;;;1.45;1.00;;;10.30;99.90;;;;;;5022404;28;20656;-76
2021/12/29 11:56:24;;;;;;;1.23;0.90;;;10.20;99.90;;;;;;5022106;28;20571;-76
2021/12/29 11:58:50;;;;;;;1.05;0.90;;;10.20;99.90;;;;;;5018191;28;20624;-76
2021/12/29 12:01:23;;;;;;;0.60;0.60;;;10.10;99.90;;;;;;5015614;28;20232;-76
2021/12/29 12:03:56;;;;;;;0.40;0.35;;;10.10;99.90;;;;;;5025737;28;20180;-75
2021/12/29 12:06:30;;;;;;;0.65;0.65;;;10.20;99.90;;;;;;5027203;28;20311;-75
2021/12/29 12:09:10;;;;;;;1.30;0.93;;;10.70;99.90;;;;;;5023074;28;20187;-74
2021/12/29 12:11:44;;;;;;;0.70;0.70;;;11.90;99.90;;;;;;5026445;28;20249;-74
2021/12/29 12:14:34;;;;;;;0.80;0.80;;;12.20;99.90;;;;;;5025801;28;20537;-75
2021/12/29 12:17:01;;;;;;;0.40;0.40;;;12.50;99.90;;;;;;5017755;28;20212;-75
2021/12/29 12:19:29;;;;;;;0.63;0.63;;;12.80;99.90;;;;;;5019529;28;20268;-74
2021/12/29 12:22:10;;;;;;;0.77;0.77;;;12.80;99.90;;;;;;5024120;28;20201;-75
2021/12/29 12:24:42;;;;;;;0.73;0.73;;;13.00;99.90;;;;;;5022788;28;20181;-74
2021/12/29 12:27:15;;;;;;;0.70;0.68;;;12.80;99.90;;;;;;5026432;28;20553;-75
2021/12/29 12:29:45;;;;;;;0.57;0.57;;;12.50;99.90;;;;;;5025718;28;20184;-77
2021/12/29 12:32:15;;;;;;;0.60;0.60;;;12.20;99.90;;;;;;5033634;28;20192;-76
2021/12/29 12:35:04;;;;;;;0.52;0.52;;;11.90;99.90;;;;;;5024712;28;20195;-76
2021/12/29 12:37:48;;;;;;;0.90;0.90;;;11.60;99.90;;;;;;5029280;28;20185;-74
2021/12/29 12:40:27;;;;;;;0.80;0.80;;;11.40;99.90;;;;;;5022264;28;20226;-75
2021/12/29 12:43:11;;;;;;;1.23;1.00;;;11.10;99.90;;;;;;5024304;28;20176;-76
2021/12/29 12:45:39;;;;;;;1.08;0.98;;;10.90;99.90;;;;;;5032319;28;20176;-75
2021/12/29 12:48:11;;;;;;;1.02;0.93;;;10.70;99.90;;;;;;5028591;28;20191;-76
2021/12/29 12:50:39;;;;;;;0.60;0.60;;;11.00;99.90;;;;;;5031678;28;20665;-76
2021/12/29 12:53:05;;;;;;;2.03;0.85;;;11.40;99.90;;;;;;5026495;28;20219;-75
2021/12/29 12:55:49;;;;;;;0.90;0.90;;;11.10;99.90;;;;;;5028696;28;20223;-76
2021/12/29 12:58:17;;;;;;;1.13;0.88;;;10.70;99.90;;;;;;5032567;28;20184;-75
2021/12/29 13:01:00;;;;;;;1.10;0.70;;;10.40;99.90;;;;;;5020224;28;20213;-75
2021/12/29 13:03:26;;;;;;;1.00;0.80;;;10.20;99.90;;;;;;5022600;28;20188;-75
2021/12/29 13:05:56;;;;;;;2.58;1.00;;;9.90;99.90;;;;;;5029758;28;20647;-75
2021/12/29 13:08:36;;;;;;;1.15;0.85;;;9.70;99.90;;;;;;5030037;28;20184;-75